Time;durP1;ratioP1;P1;durP2;ratioP2;P2;SDS_P1;SDS_P2;PMS_P1;PMS_P2;Temp;Humidity;BMP_temperature;BMP_pressure;BME280_temperature;BME280_humidity;BME280_pressure;Samples;Min_cycle;Max_cycle;Signal;HPM_P1;HPM_P2
2021/07/31 00:00:59;;;;;;;1.80;1.63;;;16.30;99.90;;;;;;491552;238;29386;-69
2021/07/31 00:03:00;;;;;;;2.20;1.57;;;16.30;99.90;;;;;;491685;241;28849;-69
2021/07/31 00:05:01;;;;;;;2.33;1.70;;;16.30;99.90;;;;;;491799;241;28819;-68
2021/07/31 00:07:03;;;;;;;4.90;1.70;;;16.30;99.90;;;;;;491746;241;28814;-71
2021/07/31 00:09:04;;;;;;;2.10;1.60;;;16.20;99.90;;;;;;491808;241;28768;-69
2021/07/31 00:11:05;;;;;;;1.90;1.47;;;16.20;99.90;;;;;;491805;241;28816;-69
2021/07/31 00:13:06;;;;;;;1.70;1.60;;;16.30;99.90;;;;;;491758;241;28780;-69
2021/07/31 00:15:08;;;;;;;1.63;1.53;;;16.30;99.90;;;;;;491799;241;28798;-69
2021/07/31 00:17:09;;;;;;;2.90;1.90;;;16.20;99.90;;;;;;491832;241;28831;-68
2021/07/31 00:19:10;;;;;;;1.63;1.53;;;16.20;99.90;;;;;;491786;241;29327;-68
2021/07/31 00:21:11;;;;;;;2.20;1.60;;;16.20;99.90;;;;;;491806;241;29288;-71
2021/07/31 00:23:13;;;;;;;2.83;1.60;;;16.20;99.90;;;;;;491809;242;29263;-71
2021/07/31 00:25:14;;;;;;;1.70;1.60;;;16.10;99.90;;;;;;491809;238;29241;-69
2021/07/31 00:27:15;;;;;;;1.30;1.30;;;16.10;99.90;;;;;;491803;241;28807;-71
2021/07/31 00:29:16;;;;;;;2.27;1.90;;;16.00;99.90;;;;;;491658;241;28749;-71
2021/07/31 00:31:18;;;;;;;1.60;1.50;;;16.00;99.90;;;;;;491736;241;28764;-69
2021/07/31 00:33:19;;;;;;;2.20;1.50;;;16.00;99.90;;;;;;491564;241;28815;-70
2021/07/31 00:35:20;;;;;;;1.50;1.40;;;16.00;99.90;;;;;;491768;241;28775;-69
2021/07/31 00:37:21;;;;;;;1.60;1.50;;;15.90;99.90;;;;;;491852;241;28782;-71
2021/07/31 00:39:23;;;;;;;1.70;1.60;;;15.90;99.90;;;;;;491853;242;28769;-71
2021/07/31 00:41:24;;;;;;;1.70;1.60;;;15.90;99.90;;;;;;491889;241;28837;-71
2021/07/31 00:43:25;;;;;;;2.10;1.80;;;15.90;99.90;;;;;;491821;241;28764;-71
2021/07/31 00:45:26;;;;;;;1.70;1.60;;;15.80;99.90;;;;;;491844;241;29348;-71
2021/07/31 00:47:28;;;;;;;1.50;1.40;;;15.80;99.90;;;;;;491799;241;29379;-70
2021/07/31 00:49:29;;;;;;;1.70;1.60;;;15.70;99.90;;;;;;491849;242;29282;-71
2021/07/31 00:51:30;;;;;;;1.93;1.80;;;15.80;99.90;;;;;;491846;241;28798;-69
2021/07/31 00:53:33;;;;;;;4.60;1.73;;;15.80;99.90;;;;;;491772;241;28790;-71
2021/07/31 00:55:33;;;;;;;3.60;1.77;;;15.70;99.90;;;;;;491780;241;28781;-68
2021/07/31 00:57:34;;;;;;;3.13;1.80;;;15.70;99.90;;;;;;491817;241;28807;-69
2021/07/31 00:59:35;;;;;;;1.90;1.60;;;15.70;99.90;;;;;;491829;237;28765;-69
2021/07/31 01:01:36;;;;;;;1.60;1.50;;;15.60;99.90;;;;;;491809;241;28803;-68
2021/07/31 01:03:40;;;;;;;2.73;1.80;;;15.60;99.90;;;;;;491824;242;29243;-69
2021/07/31 01:05:39;;;;;;;2.67;1.90;;;15.40;99.90;;;;;;491710;241;28812;-71
2021/07/31 01:07:40;;;;;;;1.80;1.60;;;15.40;99.90;;;;;;491780;241;28824;-70
2021/07/31 01:09:41;;;;;;;3.13;1.70;;;15.30;99.90;;;;;;491807;242;29218;-69
2021/07/31 01:11:43;;;;;;;1.50;1.40;;;15.20;99.90;;;;;;491802;241;29379;-71
2021/07/31 01:13:44;;;;;;;1.63;1.53;;;15.20;99.90;;;;;;491829;241;29267;-70
2021/07/31 01:15:45;;;;;;;1.63;1.50;;;15.20;99.90;;;;;;491828;241;28771;-69
2021/07/31 01:17:46;;;;;;;1.83;1.70;;;15.10;99.90;;;;;;491819;241;28794;-69
2021/07/31 01:19:48;;;;;;;1.50;1.40;;;15.10;99.90;;;;;;491844;241;28850;-70
2021/07/31 01:21:49;;;;;;;1.90;1.50;;;15.00;99.90;;;;;;491800;241;28802;-69
2021/07/31 01:23:50;;;;;;;1.60;1.50;;;15.00;99.90;;;;;;491798;242;28817;-70
2021/07/31 01:25:51;;;;;;;1.90;1.80;;;15.00;99.90;;;;;;491826;241;28363;-69
2021/07/31 01:27:53;;;;;;;2.03;1.70;;;14.90;99.90;;;;;;491840;241;28797;-69
2021/07/31 01:29:54;;;;;;;2.90;1.70;;;14.90;99.90;;;;;;491849;241;28363;-69
2021/07/31 01:31:55;;;;;;;2.20;1.47;;;14.90;99.90;;;;;;491814;241;28807;-70
2021/07/31 01:33:56;;;;;;;2.43;1.87;;;14.80;99.90;;;;;;491780;241;28980;-70
2021/07/31 01:35:58;;;;;;;1.83;1.70;;;14.80;99.90;;;;;;491845;241;29214;-69
2021/07/31 01:38:01;;;;;;;1.73;1.63;;;14.80;99.90;;;;;;491793;241;29391;-69
2021/07/31 01:40:00;;;;;;;4.60;1.90;;;14.80;99.90;;;;;;491721;242;28488;-69
2021/07/31 01:42:02;;;;;;;6.30;2.13;;;14.80;99.90;;;;;;491823;242;28783;-69
2021/07/31 01:44:03;;;;;;;1.70;1.60;;;14.80;99.90;;;;;;491775;241;28801;-69
2021/07/31 01:46:04;;;;;;;1.97;1.87;;;14.80;99.90;;;;;;491800;241;28819;-69
2021/07/31 01:48:05;;;;;;;1.80;1.70;;;14.80;99.90;;;;;;491812;241;28785;-69
2021/07/31 01:50:07;;;;;;;2.07;1.60;;;14.90;99.90;;;;;;491825;241;28460;-69
2021/07/31 01:52:08;;;;;;;3.03;1.80;;;14.90;99.90;;;;;;491827;241;28491;-69
2021/07/31 01:54:09;;;;;;;1.80;1.70;;;14.90;99.90;;;;;;491786;241;28900;-69
2021/07/31 01:56:10;;;;;;;2.30;1.73;;;14.90;99.90;;;;;;491800;237;28755;-69
2021/07/31 01:58:12;;;;;;;1.70;1.60;;;14.90;99.90;;;;;;491757;241;29242;-69
2021/07/31 02:00:13;;;;;;;2.00;1.50;;;14.90;99.90;;;;;;491807;241;29954;-69
2021/07/31 02:02:14;;;;;;;3.00;1.60;;;14.80;99.90;;;;;;491793;241;29211;-69
2021/07/31 02:04:15;;;;;;;3.17;1.60;;;14.80;99.90;;;;;;491780;241;28992;-69
2021/07/31 02:06:17;;;;;;;3.27;1.83;;;14.80;99.90;;;;;;491792;241;28364;-69
2021/07/31 02:08:18;;;;;;;1.53;1.43;;;14.70;99.90;;;;;;491779;241;28805;-69
2021/07/31 02:10:19;;;;;;;2.30;2.10;;;14.70;99.90;;;;;;491822;241;28565;-70
2021/07/31 02:12:20;;;;;;;2.20;1.50;;;14.70;99.90;;;;;;491843;241;28788;-69
2021/07/31 02:14:22;;;;;;;2.57;1.87;;;14.70;99.90;;;;;;491808;241;28812;-69
2021/07/31 02:16:23;;;;;;;1.70;1.60;;;14.70;99.90;;;;;;491831;241;28476;-69
2021/07/31 02:18:24;;;;;;;1.60;1.50;;;14.60;99.90;;;;;;491812;238;28833;-69
2021/07/31 02:20:25;;;;;;;2.20;2.00;;;14.60;99.90;;;;;;491829;241;28507;-70
2021/07/31 02:22:27;;;;;;;1.50;1.40;;;14.60;99.90;;;;;;491845;241;29225;-69
2021/07/31 02:24:28;;;;;;;3.83;1.90;;;14.50;99.90;;;;;;491797;241;29308;-70
2021/07/31 02:26:29;;;;;;;1.80;1.70;;;14.40;99.90;;;;;;491821;241;29286;-69
2021/07/31 02:28:30;;;;;;;1.50;1.40;;;14.40;99.90;;;;;;491840;242;29341;-69
2021/07/31 02:30:32;;;;;;;2.87;1.50;;;14.40;99.90;;;;;;491794;241;28819;-69
2021/07/31 02:32:33;;;;;;;1.77;1.67;;;14.40;99.90;;;;;;491856;242;28362;-69
2021/07/31 02:34:34;;;;;;;1.67;1.57;;;14.40;99.90;;;;;;491815;241;28864;-69
2021/07/31 02:36:35;;;;;;;1.90;1.77;;;14.40;99.90;;;;;;491854;241;28813;-69
2021/07/31 02:38:37;;;;;;;1.80;1.60;;;14.40;99.90;;;;;;491856;241;28917;-69
2021/07/31 02:40:38;;;;;;;2.23;1.50;;;14.30;99.90;;;;;;491782;242;28820;-69
2021/07/31 02:42:39;;;;;;;2.03;1.73;;;14.30;99.90;;;;;;491817;241;28613;-70
2021/07/31 02:44:40;;;;;;;1.97;1.73;;;14.20;99.90;;;;;;491791;241;28884;-69
2021/07/31 02:46:42;;;;;;;1.83;1.73;;;14.30;99.90;;;;;;491805;241;28901;-69
2021/07/31 02:48:43;;;;;;;1.70;1.60;;;14.20;99.90;;;;;;491834;242;29201;-69
2021/07/31 02:50:44;;;;;;;2.30;1.60;;;14.30;99.90;;;;;;491829;241;28865;-69
2021/07/31 02:52:45;;;;;;;2.30;1.60;;;14.30;99.90;;;;;;491812;242;28788;-69
2021/07/31 02:54:47;;;;;;;1.90;1.80;;;14.30;99.90;;;;;;491798;241;28479;-69
2021/07/31 02:56:48;;;;;;;1.70;1.60;;;14.20;99.90;;;;;;491843;241;28794;-69
2021/07/31 02:58:49;;;;;;;1.80;1.70;;;14.20;99.90;;;;;;491851;241;28273;-69
2021/07/31 03:00:51;;;;;;;3.23;1.90;;;14.10;99.90;;;;;;491774;241;28401;-69
2021/07/31 03:02:52;;;;;;;2.07;1.70;;;14.10;99.90;;;;;;491823;241;28485;-69
2021/07/31 03:04:53;;;;;;;2.03;1.60;;;14.10;99.90;;;;;;491822;241;28547;-69
2021/07/31 03:06:54;;;;;;;1.63;1.50;;;14.10;99.90;;;;;;491822;241;28748;-69
2021/07/31 03:08:55;;;;;;;2.17;2.00;;;14.10;99.90;;;;;;491826;242;28767;-70
2021/07/31 03:10:57;;;;;;;2.13;1.93;;;14.10;99.90;;;;;;491821;241;29063;-69
2021/07/31 03:12:58;;;;;;;1.63;1.53;;;14.10;99.90;;;;;;491837;241;29307;-69
2021/07/31 03:14:59;;;;;;;1.70;1.60;;;14.00;99.90;;;;;;491789;241;29427;-69
2021/07/31 03:17:01;;;;;;;2.00;1.90;;;14.10;99.90;;;;;;491840;241;28986;-69
2021/07/31 03:19:02;;;;;;;3.03;1.63;;;14.00;99.90;;;;;;491853;241;28383;-69
2021/07/31 03:21:03;;;;;;;1.70;1.60;;;14.00;99.90;;;;;;491831;241;28603;-69
2021/07/31 03:23:04;;;;;;;4.27;1.73;;;14.00;99.90;;;;;;491822;241;28313;-69
2021/07/31 03:25:06;;;;;;;2.07;1.83;;;14.00;99.90;;;;;;491823;241;28394;-69
2021/07/31 03:27:07;;;;;;;1.63;1.57;;;14.00;99.90;;;;;;491849;242;28295;-69
2021/07/31 03:29:08;;;;;;;2.20;2.10;;;13.90;99.90;;;;;;491864;242;28373;-69
2021/07/31 03:31:10;;;;;;;3.87;1.80;;;13.90;99.90;;;;;;491818;241;28521;-69
2021/07/31 03:33:11;;;;;;;1.80;1.60;;;13.80;99.90;;;;;;491754;242;28370;-69
2021/07/31 03:35:12;;;;;;;1.57;1.43;;;13.80;99.90;;;;;;491790;241;28766;-69
2021/07/31 03:37:13;;;;;;;1.67;1.57;;;13.80;99.90;;;;;;491821;241;28941;-70
2021/07/31 03:39:14;;;;;;;2.00;1.67;;;13.70;99.90;;;;;;491844;242;28873;-69
2021/07/31 03:41:16;;;;;;;2.23;2.03;;;13.60;99.90;;;;;;491802;241;28854;-69
2021/07/31 03:43:17;;;;;;;1.87;1.77;;;13.60;99.90;;;;;;491767;241;28303;-69
2021/07/31 03:45:18;;;;;;;2.20;1.70;;;13.60;99.90;;;;;;491814;238;28167;-68
2021/07/31 03:47:19;;;;;;;2.23;2.00;;;13.60;99.90;;;;;;491847;241;28320;-69
2021/07/31 03:49:21;;;;;;;3.53;1.80;;;13.60;99.90;;;;;;491831;241;28262;-69
2021/07/31 03:51:23;;;;;;;3.73;2.10;;;;;;;;;;491769;241;28572;-69
2021/07/31 03:53:24;;;;;;;1.80;1.70;;;13.60;99.90;;;;;;491816;241;27231;-69
2021/07/31 03:55:25;;;;;;;1.93;1.80;;;13.60;99.90;;;;;;491816;241;28393;-69
2021/07/31 03:57:27;;;;;;;2.07;1.87;;;13.60;99.90;;;;;;491821;241;28536;-69
2021/07/31 03:59:28;;;;;;;1.43;1.40;;;13.60;99.90;;;;;;491815;241;28272;-69
2021/07/31 04:01:29;;;;;;;2.37;1.70;;;13.60;99.90;;;;;;491776;241;28182;-69
2021/07/31 04:03:30;;;;;;;1.80;1.70;;;13.60;99.90;;;;;;491809;241;28299;-69
2021/07/31 04:05:32;;;;;;;2.60;1.80;;;13.60;99.90;;;;;;491788;241;28437;-68
2021/07/31 04:07:33;;;;;;;1.63;1.53;;;13.60;99.90;;;;;;491822;241;28377;-69
2021/07/31 04:09:34;;;;;;;4.10;1.60;;;13.50;99.90;;;;;;491794;241;28183;-69
2021/07/31 04:11:35;;;;;;;1.80;1.70;;;13.60;99.90;;;;;;491827;241;28342;-69
2021/07/31 04:13:37;;;;;;;2.07;1.73;;;13.50;99.90;;;;;;491806;241;28712;-69
2021/07/31 04:15:38;;;;;;;1.70;1.60;;;13.50;99.90;;;;;;491811;241;28753;-69
2021/07/31 04:17:39;;;;;;;2.07;1.77;;;13.50;99.90;;;;;;491835;241;28746;-69
2021/07/31 04:19:40;;;;;;;2.50;1.83;;;13.50;99.90;;;;;;491770;241;28172;-69
2021/07/31 04:21:42;;;;;;;2.80;1.60;;;13.50;99.90;;;;;;491805;241;28320;-69
2021/07/31 04:23:43;;;;;;;4.23;1.73;;;13.40;99.90;;;;;;491831;241;28300;-69
2021/07/31 04:25:44;;;;;;;2.50;1.63;;;13.50;99.90;;;;;;491798;241;28316;-69
2021/07/31 04:27:47;;;;;;;1.73;1.60;;;13.40;99.90;;;;;;491812;241;28157;-69
2021/07/31 04:29:47;;;;;;;1.90;1.70;;;13.40;99.90;;;;;;491763;242;28810;-69
2021/07/31 04:31:48;;;;;;;2.67;1.80;;;13.40;99.90;;;;;;491794;242;28287;-69
2021/07/31 04:33:49;;;;;;;2.23;1.70;;;13.40;99.90;;;;;;491827;242;28197;-69
2021/07/31 04:35:51;;;;;;;2.30;1.97;;;13.40;99.90;;;;;;491776;241;28759;-69
2021/07/31 04:37:52;;;;;;;2.90;1.80;;;13.50;99.90;;;;;;491797;241;28708;-69
2021/07/31 04:39:53;;;;;;;1.70;1.60;;;13.50;99.90;;;;;;491816;242;28854;-69
2021/07/31 04:41:54;;;;;;;2.67;2.00;;;13.40;99.90;;;;;;491785;241;28597;-69
2021/07/31 04:43:56;;;;;;;2.00;1.90;;;13.50;99.90;;;;;;491834;241;28472;-69
2021/07/31 04:45:58;;;;;;;2.17;1.97;;;;;;;;;;491780;241;28182;-69
2021/07/31 04:47:59;;;;;;;1.83;1.73;;;13.60;99.90;;;;;;491807;241;26621;-69
2021/07/31 04:50:02;;;;;;;4.93;1.90;;;;;;;;;;491821;242;28584;-69
2021/07/31 04:52:03;;;;;;;2.40;2.10;;;13.50;99.90;;;;;;490005;241;26622;-69
2021/07/31 04:54:04;;;;;;;2.43;1.90;;;13.60;99.90;;;;;;488670;241;28031;-69
2021/07/31 04:56:05;;;;;;;2.03;1.93;;;13.60;99.90;;;;;;492338;241;28230;-69
2021/07/31 04:58:07;;;;;;;2.20;2.00;;;13.70;99.90;;;;;;492332;241;28059;-69
2021/07/31 05:00:08;;;;;;;3.70;1.90;;;13.80;99.90;;;;;;492339;241;28169;-69
2021/07/31 05:02:09;;;;;;;2.53;1.50;;;13.80;99.90;;;;;;492351;241;28377;-69
2021/07/31 05:04:10;;;;;;;1.60;1.50;;;13.90;99.90;;;;;;492371;241;28731;-69
2021/07/31 05:06:12;;;;;;;3.03;1.83;;;13.90;99.90;;;;;;492336;241;28617;-69
2021/07/31 05:08:13;;;;;;;2.07;1.87;;;13.90;99.90;;;;;;492379;240;28655;-69
2021/07/31 05:10:14;;;;;;;3.20;1.83;;;14.00;99.90;;;;;;492358;241;28451;-69
2021/07/31 05:12:15;;;;;;;2.40;1.60;;;14.00;99.90;;;;;;492324;241;28335;-69
2021/07/31 05:14:17;;;;;;;2.30;1.70;;;14.00;99.90;;;;;;492316;241;28245;-69
2021/07/31 05:16:18;;;;;;;4.20;1.80;;;14.10;99.90;;;;;;492285;241;28208;-70
2021/07/31 05:18:19;;;;;;;1.60;1.50;;;14.10;99.90;;;;;;492278;241;28415;-70
2021/07/31 05:20:20;;;;;;;1.70;1.60;;;14.10;99.90;;;;;;492290;241;28343;-69
2021/07/31 05:22:22;;;;;;;3.33;1.90;;;14.20;99.90;;;;;;492282;241;28666;-69
2021/07/31 05:24:23;;;;;;;1.60;1.50;;;14.20;99.90;;;;;;492315;241;28630;-69
2021/07/31 05:26:24;;;;;;;2.40;1.70;;;14.20;99.90;;;;;;492287;241;28304;-69
2021/07/31 05:28:25;;;;;;;1.90;1.73;;;14.20;99.90;;;;;;492316;241;30312;-69
2021/07/31 05:30:27;;;;;;;2.90;1.70;;;14.30;99.90;;;;;;492325;241;28948;-70
2021/07/31 05:32:28;;;;;;;2.10;1.57;;;14.20;99.90;;;;;;492302;241;28995;-69
2021/07/31 05:34:29;;;;;;;2.50;1.60;;;14.30;99.90;;;;;;492294;241;28804;-69
2021/07/31 05:36:34;;;;;;;1.67;1.57;;;14.30;99.90;;;;;;492362;241;28390;-69
2021/07/31 05:38:32;;;;;;;2.27;1.47;;;14.30;99.90;;;;;;492038;241;28402;-69
2021/07/31 05:40:33;;;;;;;1.90;1.80;;;14.30;99.90;;;;;;492326;241;28324;-69
2021/07/31 05:42:34;;;;;;;2.03;1.80;;;14.40;99.90;;;;;;492210;241;28470;-69
2021/07/31 05:44:35;;;;;;;1.70;1.60;;;14.40;99.90;;;;;;492317;240;28376;-69
2021/07/31 05:46:37;;;;;;;6.83;1.90;;;14.40;99.90;;;;;;492330;241;28812;-69
2021/07/31 05:48:38;;;;;;;4.60;2.63;;;14.50;99.90;;;;;;492327;241;28343;-69
2021/07/31 05:50:39;;;;;;;2.83;1.73;;;14.50;99.90;;;;;;492343;241;28811;-70
2021/07/31 05:52:41;;;;;;;1.60;1.50;;;14.50;99.90;;;;;;492319;241;29353;-69
2021/07/31 05:54:42;;;;;;;1.97;1.80;;;14.50;99.90;;;;;;491964;241;29328;-69
2021/07/31 05:56:44;;;;;;;2.20;1.87;;;14.60;99.90;;;;;;491758;241;28853;-69
2021/07/31 05:58:44;;;;;;;6.93;2.10;;;14.60;99.90;;;;;;491669;241;28987;-70
2021/07/31 06:00:46;;;;;;;2.73;1.70;;;14.60;99.90;;;;;;491817;241;28475;-71
2021/07/31 06:02:47;;;;;;;3.73;2.10;;;14.60;99.90;;;;;;491799;242;28630;-71
2021/07/31 06:04:48;;;;;;;1.93;1.83;;;14.60;99.90;;;;;;491799;241;28811;-69
2021/07/31 06:06:49;;;;;;;2.00;1.90;;;14.70;99.90;;;;;;491756;241;28600;-69
2021/07/31 06:08:51;;;;;;;3.23;1.80;;;14.70;99.90;;;;;;491783;241;28621;-71
2021/07/31 06:10:52;;;;;;;3.53;1.80;;;14.80;99.90;;;;;;491794;241;28912;-71
2021/07/31 06:12:53;;;;;;;2.50;1.63;;;14.80;99.90;;;;;;491733;241;28815;-71
2021/07/31 06:14:54;;;;;;;2.77;1.67;;;14.80;99.90;;;;;;491838;241;28781;-69
2021/07/31 06:16:59;;;;;;;1.90;1.80;;;14.80;99.90;;;;;;491839;241;29298;-68
2021/07/31 06:18:57;;;;;;;4.33;1.83;;;14.90;99.90;;;;;;491479;241;28978;-69
2021/07/31 06:20:59;;;;;;;2.47;1.70;;;14.90;99.90;;;;;;491831;241;29239;-70
2021/07/31 06:23:00;;;;;;;2.10;1.90;;;14.90;99.90;;;;;;491785;241;27512;-69
2021/07/31 06:25:02;;;;;;;2.70;1.60;;;15.00;99.90;;;;;;491842;241;28507;-70
2021/07/31 06:27:03;;;;;;;2.03;1.83;;;15.00;99.90;;;;;;491823;241;28393;-72
2021/07/31 06:29:04;;;;;;;2.90;1.70;;;15.00;99.90;;;;;;491777;241;28947;-71
2021/07/31 06:31:06;;;;;;;3.53;1.80;;;15.00;99.90;;;;;;491819;241;28913;-71
2021/07/31 06:33:07;;;;;;;1.70;1.60;;;15.00;99.90;;;;;;491773;242;28831;-69
2021/07/31 06:35:08;;;;;;;2.23;1.87;;;15.00;99.90;;;;;;491805;241;28603;-69
2021/07/31 06:37:09;;;;;;;1.67;1.57;;;15.10;99.90;;;;;;491764;237;28818;-69
2021/07/31 06:39:10;;;;;;;5.83;1.80;;;15.10;99.90;;;;;;491711;242;29393;-70
2021/07/31 06:41:12;;;;;;;2.30;1.90;;;15.10;99.90;;;;;;491812;241;28784;-71
2021/07/31 06:43:13;;;;;;;1.70;1.60;;;15.20;99.90;;;;;;491761;241;28890;-71
2021/07/31 06:45:14;;;;;;;2.90;1.90;;;15.30;99.90;;;;;;491752;241;29208;-70
2021/07/31 06:47:15;;;;;;;2.00;1.80;;;15.30;99.90;;;;;;491812;242;29346;-70
2021/07/31 06:49:17;;;;;;;2.33;1.90;;;15.40;99.90;;;;;;491784;241;29250;-69
2021/07/31 06:51:19;;;;;;;3.37;1.80;;;15.30;99.90;;;;;;491813;241;28810;-70
2021/07/31 06:53:19;;;;;;;2.00;1.90;;;15.30;99.90;;;;;;491696;242;28928;-69
2021/07/31 06:55:20;;;;;;;3.50;2.10;;;15.30;99.90;;;;;;491745;241;28810;-70
2021/07/31 06:57:22;;;;;;;4.13;2.20;;;15.30;99.90;;;;;;491796;241;28810;-69
2021/07/31 06:59:23;;;;;;;2.13;1.93;;;15.40;99.90;;;;;;491748;241;28781;-70
2021/07/31 07:01:24;;;;;;;2.80;1.90;;;15.50;99.90;;;;;;491730;241;28809;-70
2021/07/31 07:03:25;;;;;;;2.83;2.20;;;15.60;99.90;;;;;;491645;241;28891;-70
2021/07/31 07:05:27;;;;;;;2.00;1.87;;;15.80;99.90;;;;;;491748;241;28779;-72
2021/07/31 07:07:28;;;;;;;3.37;1.93;;;16.00;99.90;;;;;;491775;241;28880;-69
2021/07/31 07:09:29;;;;;;;2.43;1.60;;;16.30;99.90;;;;;;491720;241;29216;-71
2021/07/31 07:11:30;;;;;;;2.23;1.73;;;16.40;99.90;;;;;;491767;241;29275;-71
2021/07/31 07:13:32;;;;;;;1.80;1.60;;;16.30;99.90;;;;;;491713;238;31170;-71
2021/07/31 07:15:34;;;;;;;2.53;1.90;;;16.30;99.90;;;;;;491789;241;28854;-72
2021/07/31 07:17:35;;;;;;;1.80;1.70;;;16.30;99.90;;;;;;491803;242;27558;-71
2021/07/31 07:19:36;;;;;;;2.73;2.07;;;16.40;99.90;;;;;;491779;241;28876;-71
2021/07/31 07:21:38;;;;;;;5.70;1.60;;;16.20;99.90;;;;;;491797;241;28884;-72
2021/07/31 07:23:39;;;;;;;3.80;2.27;;;16.20;99.90;;;;;;491744;242;28812;-73
2021/07/31 07:25:41;;;;;;;2.23;1.70;;;16.10;99.90;;;;;;491762;241;29265;-72
2021/07/31 07:27:41;;;;;;;3.33;2.07;;;16.10;99.90;;;;;;491753;242;28871;-69
2021/07/31 07:29:43;;;;;;;2.43;2.20;;;16.10;99.90;;;;;;491851;241;29275;-72
2021/07/31 07:31:44;;;;;;;3.87;2.10;;;16.20;99.90;;;;;;491869;241;29224;-71
2021/07/31 07:33:45;;;;;;;3.10;2.17;;;16.20;99.90;;;;;;491846;241;29292;-72
2021/07/31 07:35:47;;;;;;;3.77;2.07;;;16.20;99.90;;;;;;491783;241;28882;-70
2021/07/31 07:37:48;;;;;;;3.87;2.00;;;16.30;99.90;;;;;;491825;241;28768;-70
2021/07/31 07:39:49;;;;;;;3.80;2.10;;;16.20;99.90;;;;;;491735;241;28808;-70
2021/07/31 07:41:50;;;;;;;2.87;1.90;;;16.30;99.90;;;;;;491730;241;28827;-70
2021/07/31 07:43:51;;;;;;;3.63;2.00;;;16.50;99.90;;;;;;491784;242;28892;-72
2021/07/31 07:45:53;;;;;;;3.53;2.20;;;16.60;99.90;;;;;;491763;238;28843;-73
2021/07/31 07:47:54;;;;;;;4.00;2.20;;;16.70;99.90;;;;;;491792;241;28853;-72
2021/07/31 07:49:55;;;;;;;5.97;2.23;;;16.80;99.90;;;;;;491759;241;29332;-70
2021/07/31 07:51:56;;;;;;;2.73;2.00;;;16.80;99.90;;;;;;491784;241;29314;-71
2021/07/31 07:53:58;;;;;;;3.77;2.00;;;16.90;99.90;;;;;;491822;241;29366;-72
2021/07/31 07:56:02;;;;;;;2.37;2.17;;;16.80;99.90;;;;;;491819;241;29367;-72
2021/07/31 07:58:03;;;;;;;1.97;1.77;;;16.90;99.90;;;;;;491846;242;29297;-71
2021/07/31 08:00:06;;;;;;;2.80;2.20;;;17.00;99.90;;;;;;491825;241;29214;-71
2021/07/31 08:02:06;;;;;;;3.20;2.13;;;17.20;99.90;;;;;;491767;237;29241;-70
2021/07/31 08:04:07;;;;;;;2.07;1.80;;;17.30;99.90;;;;;;491827;242;29218;-69
2021/07/31 08:06:08;;;;;;;2.00;1.73;;;17.30;99.90;;;;;;491838;241;28866;-70
2021/07/31 08:08:10;;;;;;;1.80;1.70;;;17.30;99.90;;;;;;491760;242;28790;-70
2021/07/31 08:10:11;;;;;;;3.30;1.90;;;17.20;99.90;;;;;;491773;241;28810;-72
2021/07/31 08:12:12;;;;;;;2.47;1.97;;;17.10;99.90;;;;;;491807;241;28781;-72
2021/07/31 08:14:13;;;;;;;2.53;1.87;;;17.10;99.90;;;;;;491813;241;28870;-71
2021/07/31 08:16:15;;;;;;;2.90;1.83;;;17.20;99.90;;;;;;491847;241;28844;-72
2021/07/31 08:18:16;;;;;;;1.70;1.60;;;17.40;99.90;;;;;;491837;241;28818;-71
2021/07/31 08:20:17;;;;;;;3.03;1.90;;;17.50;99.90;;;;;;491785;241;28805;-72
2021/07/31 08:22:18;;;;;;;3.43;1.87;;;17.60;99.90;;;;;;491766;241;28835;-69
2021/07/31 08:24:21;;;;;;;2.27;1.87;;;17.60;99.90;;;;;;491569;242;29307;-71
2021/07/31 08:26:21;;;;;;;3.37;1.80;;;17.70;99.90;;;;;;491499;241;29379;-71
2021/07/31 08:28:22;;;;;;;2.37;1.80;;;17.60;99.90;;;;;;491853;241;29314;-70
2021/07/31 08:30:23;;;;;;;3.23;1.90;;;17.60;99.90;;;;;;490552;241;28838;-69
2021/07/31 08:32:25;;;;;;;2.53;1.97;;;17.50;99.90;;;;;;485546;241;28711;-69
2021/07/31 08:34:26;;;;;;;3.63;2.20;;;17.50;99.90;;;;;;492325;241;28808;-70
2021/07/31 08:36:27;;;;;;;2.60;1.83;;;17.60;99.90;;;;;;492240;241;28766;-70
2021/07/31 08:38:28;;;;;;;3.07;2.10;;;17.60;99.90;;;;;;492225;241;28702;-70
2021/07/31 08:40:30;;;;;;;5.10;2.23;;;17.80;99.90;;;;;;492203;241;28873;-70
2021/07/31 08:42:31;;;;;;;2.10;1.53;;;18.00;99.90;;;;;;492175;240;28808;-70
2021/07/31 08:44:32;;;;;;;2.70;2.10;;;18.10;99.90;;;;;;492261;241;28720;-70
2021/07/31 08:46:33;;;;;;;3.20;1.93;;;18.30;99.90;;;;;;492282;241;28854;-69
2021/07/31 08:48:35;;;;;;;2.60;2.00;;;18.40;99.90;;;;;;492318;241;29276;-70
2021/07/31 08:50:36;;;;;;;3.20;2.00;;;18.50;99.90;;;;;;492112;241;29299;-69
2021/07/31 08:52:37;;;;;;;3.37;2.17;;;18.40;99.90;;;;;;492022;241;29316;-70
2021/07/31 08:54:38;;;;;;;4.13;1.80;;;18.50;99.90;;;;;;492242;241;28823;-72
2021/07/31 08:56:40;;;;;;;3.67;2.20;;;18.60;99.90;;;;;;492242;241;28797;-71
2021/07/31 08:58:41;;;;;;;2.80;2.13;;;18.60;99.90;;;;;;492332;241;28802;-71
2021/07/31 09:00:42;;;;;;;2.10;2.00;;;18.60;99.90;;;;;;492298;241;28800;-72
2021/07/31 09:02:43;;;;;;;2.90;1.90;;;18.50;99.90;;;;;;492311;241;28868;-71
2021/07/31 09:04:45;;;;;;;2.17;1.80;;;18.30;99.90;;;;;;492346;241;28805;-71
2021/07/31 09:06:46;;;;;;;2.10;1.90;;;18.40;99.90;;;;;;492348;240;28787;-71
2021/07/31 09:08:47;;;;;;;3.60;1.73;;;18.60;99.90;;;;;;492350;241;28710;-71
2021/07/31 09:10:48;;;;;;;2.43;1.80;;;18.60;99.90;;;;;;492364;241;28844;-71
2021/07/31 09:12:50;;;;;;;2.37;2.00;;;18.80;99.90;;;;;;492327;240;29138;-72
2021/07/31 09:14:51;;;;;;;2.20;1.70;;;18.90;99.90;;;;;;492319;241;29281;-71
2021/07/31 09:16:52;;;;;;;5.43;1.77;;;19.00;99.90;;;;;;492329;241;29227;-71
2021/07/31 09:18:53;;;;;;;3.27;2.07;;;18.70;99.90;;;;;;492328;241;28898;-72
2021/07/31 09:20:55;;;;;;;2.77;1.93;;;18.70;99.90;;;;;;492339;241;28881;-71
2021/07/31 09:22:56;;;;;;;2.10;1.87;;;18.80;99.90;;;;;;492329;241;28748;-71
2021/07/31 09:24:57;;;;;;;2.63;1.77;;;19.00;99.90;;;;;;492342;241;28844;-72
2021/07/31 09:26:58;;;;;;;6.50;2.30;;;18.90;99.90;;;;;;492334;241;28749;-71
2021/07/31 09:29:00;;;;;;;5.60;2.00;;;19.10;99.90;;;;;;492303;241;28695;-72
2021/07/31 09:31:01;;;;;;;1.80;1.60;;;19.20;99.90;;;;;;492346;241;28830;-72
2021/07/31 09:33:02;;;;;;;4.70;2.20;;;19.10;99.90;;;;;;492337;241;28836;-71
2021/07/31 09:35:03;;;;;;;2.17;2.00;;;18.90;99.90;;;;;;492333;241;28879;-71
2021/07/31 09:37:05;;;;;;;2.37;2.17;;;18.80;99.90;;;;;;492295;241;30334;-71
2021/07/31 09:39:06;;;;;;;2.73;1.90;;;18.60;99.90;;;;;;492318;241;29240;-72
2021/07/31 09:41:07;;;;;;;3.00;2.20;;;18.70;99.90;;;;;;492334;241;29264;-71
2021/07/31 09:43:08;;;;;;;2.40;2.07;;;18.80;99.90;;;;;;492339;237;28849;-71
2021/07/31 09:45:10;;;;;;;2.90;1.90;;;18.80;99.90;;;;;;492230;241;28713;-71
2021/07/31 09:47:11;;;;;;;2.80;2.00;;;18.60;99.90;;;;;;492284;241;28694;-71
2021/07/31 09:49:12;;;;;;;2.13;2.03;;;18.60;99.90;;;;;;492347;241;28682;-71
2021/07/31 09:51:13;;;;;;;3.73;2.57;;;18.50;99.90;;;;;;492330;241;28900;-73
2021/07/31 09:53:15;;;;;;;2.33;2.13;;;18.50;99.90;;;;;;492324;241;28814;-72
2021/07/31 09:55:16;;;;;;;2.03;1.83;;;18.50;99.90;;;;;;492327;241;28916;-71
2021/07/31 09:57:17;;;;;;;1.93;1.83;;;18.40;99.90;;;;;;492336;241;29455;-72
2021/07/31 09:59:18;;;;;;;2.07;1.87;;;18.60;99.90;;;;;;492341;241;28768;-71
2021/07/31 10:01:20;;;;;;;5.37;2.00;;;18.70;99.90;;;;;;492300;241;29261;-71
2021/07/31 10:03:21;;;;;;;2.70;2.20;;;18.70;99.90;;;;;;492323;241;29178;-71
2021/07/31 10:05:22;;;;;;;2.10;1.93;;;18.80;99.90;;;;;;492324;241;29385;-71
2021/07/31 10:07:23;;;;;;;2.07;1.90;;;18.90;99.90;;;;;;492359;240;29361;-71
2021/07/31 10:09:25;;;;;;;2.13;1.90;;;19.30;99.90;;;;;;492329;241;28851;-72
2021/07/31 10:11:26;;;;;;;5.30;2.00;;;19.40;99.90;;;;;;492351;241;28894;-72
2021/07/31 10:13:27;;;;;;;3.83;2.20;;;19.60;99.90;;;;;;492322;241;28760;-71
2021/07/31 10:15:28;;;;;;;2.40;2.20;;;19.60;99.90;;;;;;492336;241;28886;-71
2021/07/31 10:17:30;;;;;;;3.13;1.77;;;19.80;99.90;;;;;;492331;241;28840;-72
2021/07/31 10:19:31;;;;;;;3.17;2.03;;;19.60;99.90;;;;;;492308;241;28705;-71
2021/07/31 10:21:32;;;;;;;1.87;1.77;;;19.50;99.90;;;;;;492320;241;28802;-72
2021/07/31 10:23:33;;;;;;;2.10;1.90;;;19.50;99.90;;;;;;492343;241;28673;-71
2021/07/31 10:25:35;;;;;;;3.27;1.93;;;19.40;99.90;;;;;;492333;240;29268;-71
2021/07/31 10:27:36;;;;;;;2.63;1.90;;;19.40;99.90;;;;;;492310;241;29271;-71
2021/07/31 10:29:37;;;;;;;2.40;2.20;;;19.50;99.90;;;;;;492330;240;29128;-72
2021/07/31 10:31:38;;;;;;;2.67;1.90;;;19.50;99.90;;;;;;492355;241;29317;-71